sensor_id;sensor_type;location;lat;lon;timestamp;P1;durP1;ratioP1;P2;durP2;ratioP2
22129;SDS011;11231;50.746;4.272;2023-05-10T00:02:09;15.83;;;6.90;;
22129;SDS011;11231;50.746;4.272;2023-05-10T00:04:35;17.27;;;7.37;;
22129;SDS011;11231;50.746;4.272;2023-05-10T00:07:01;18.27;;;7.33;;
22129;SDS011;11231;50.746;4.272;2023-05-10T00:09:26;16.83;;;7.10;;
22129;SDS011;11231;50.746;4.272;2023-05-10T00:11:52;14.43;;;6.73;;
22129;SDS011;11231;50.746;4.272;2023-05-10T00:14:18;14.33;;;6.93;;
22129;SDS011;11231;50.746;4.272;2023-05-10T00:16:44;18.00;;;6.83;;
22129;SDS011;11231;50.746;4.272;2023-05-10T00:19:10;17.53;;;6.90;;
22129;SDS011;11231;50.746;4.272;2023-05-10T00:21:36;18.23;;;6.93;;
22129;SDS011;11231;50.746;4.272;2023-05-10T00:24:01;15.53;;;6.90;;
22129;SDS011;11231;50.746;4.272;2023-05-10T00:26:27;19.37;;;7.83;;
22129;SDS011;11231;50.746;4.272;2023-05-10T00:28:55;15.47;;;7.50;;
22129;SDS011;11231;50.746;4.272;2023-05-10T00:31:21;15.00;;;7.53;;
22129;SDS011;11231;50.746;4.272;2023-05-10T00:33:47;18.87;;;8.27;;
22129;SDS011;11231;50.746;4.272;2023-05-10T00:36:13;21.50;;;8.43;;
22129;SDS011;11231;50.746;4.272;2023-05-10T00:38:40;17.87;;;7.77;;
22129;SDS011;11231;50.746;4.272;2023-05-10T00:41:05;18.00;;;8.43;;
22129;SDS011;11231;50.746;4.272;2023-05-10T00:43:33;18.33;;;8.93;;
22129;SDS011;11231;50.746;4.272;2023-05-10T00:45:59;18.13;;;8.83;;
22129;SDS011;11231;50.746;4.272;2023-05-10T00:48:25;19.77;;;9.13;;
22129;SDS011;11231;50.746;4.272;2023-05-10T00:50:51;18.83;;;8.40;;
22129;SDS011;11231;50.746;4.272;2023-05-10T00:53:17;16.90;;;9.00;;
22129;SDS011;11231;50.746;4.272;2023-05-10T00:55:43;17.93;;;8.83;;
22129;SDS011;11231;50.746;4.272;2023-05-10T00:58:09;19.17;;;9.50;;
22129;SDS011;11231;50.746;4.272;2023-05-10T01:00:35;21.67;;;9.47;;
22129;SDS011;11231;50.746;4.272;2023-05-10T01:03:02;20.10;;;9.83;;
22129;SDS011;11231;50.746;4.272;2023-05-10T01:05:28;24.37;;;10.67;;
22129;SDS011;11231;50.746;4.272;2023-05-10T01:07:55;19.13;;;10.03;;
22129;SDS011;11231;50.746;4.272;2023-05-10T01:10:21;17.60;;;9.40;;
22129;SDS011;11231;50.746;4.272;2023-05-10T01:12:47;18.63;;;9.67;;
22129;SDS011;11231;50.746;4.272;2023-05-10T01:15:14;21.70;;;10.03;;
22129;SDS011;11231;50.746;4.272;2023-05-10T01:17:41;21.80;;;9.70;;
22129;SDS011;11231;50.746;4.272;2023-05-10T01:20:09;19.00;;;10.10;;
22129;SDS011;11231;50.746;4.272;2023-05-10T01:31:22;22.43;;;11.70;;
22129;SDS011;11231;50.746;4.272;2023-05-10T01:36:48;24.90;;;11.97;;
22129;SDS011;11231;50.746;4.272;2023-05-10T01:41:54;20.93;;;12.30;;
22129;SDS011;11231;50.746;4.272;2023-05-10T01:47:07;25.87;;;12.53;;
22129;SDS011;11231;50.746;4.272;2023-05-10T01:49:49;23.17;;;12.00;;
22129;SDS011;11231;50.746;4.272;2023-05-10T01:52:20;26.07;;;12.90;;
22129;SDS011;11231;50.746;4.272;2023-05-10T01:55:11;21.53;;;11.10;;
22129;SDS011;11231;50.746;4.272;2023-05-10T01:57:42;27.13;;;12.40;;
22129;SDS011;11231;50.746;4.272;2023-05-10T02:00:09;24.10;;;12.23;;
22129;SDS011;11231;50.746;4.272;2023-05-10T02:02:40;22.33;;;11.83;;
22129;SDS011;11231;50.746;4.272;2023-05-10T02:05:12;25.30;;;11.60;;
22129;SDS011;11231;50.746;4.272;2023-05-10T02:07:39;21.37;;;10.80;;
22129;SDS011;11231;50.746;4.272;2023-05-10T02:10:07;24.27;;;11.00;;
22129;SDS011;11231;50.746;4.272;2023-05-10T02:12:35;22.43;;;10.53;;
22129;SDS011;11231;50.746;4.272;2023-05-10T02:15:04;23.93;;;10.97;;
22129;SDS011;11231;50.746;4.272;2023-05-10T02:17:32;22.40;;;10.73;;
22129;SDS011;11231;50.746;4.272;2023-05-10T02:20:00;23.97;;;11.63;;
22129;SDS011;11231;50.746;4.272;2023-05-10T02:22:28;23.10;;;10.87;;
22129;SDS011;11231;50.746;4.272;2023-05-10T02:24:55;23.30;;;11.37;;
22129;SDS011;11231;50.746;4.272;2023-05-10T02:27:22;22.07;;;11.80;;
22129;SDS011;11231;50.746;4.272;2023-05-10T02:29:49;24.07;;;11.20;;
22129;SDS011;11231;50.746;4.272;2023-05-10T02:32:16;22.73;;;11.30;;
22129;SDS011;11231;50.746;4.272;2023-05-10T02:34:43;23.77;;;12.23;;
22129;SDS011;11231;50.746;4.272;2023-05-10T02:37:11;24.47;;;11.83;;
22129;SDS011;11231;50.746;4.272;2023-05-10T02:39:39;23.23;;;12.37;;
22129;SDS011;11231;50.746;4.272;2023-05-10T02:42:10;25.37;;;12.73;;
22129;SDS011;11231;50.746;4.272;2023-05-10T02:44:40;25.67;;;12.77;;
22129;SDS011;11231;50.746;4.272;2023-05-10T02:47:07;24.80;;;13.03;;
22129;SDS011;11231;50.746;4.272;2023-05-10T02:49:33;28.10;;;14.30;;
22129;SDS011;11231;50.746;4.272;2023-05-10T02:52:00;27.77;;;15.17;;
22129;SDS011;11231;50.746;4.272;2023-05-10T02:54:31;29.53;;;14.67;;
22129;SDS011;11231;50.746;4.272;2023-05-10T02:57:00;30.57;;;15.20;;
22129;SDS011;11231;50.746;4.272;2023-05-10T02:59:29;28.43;;;15.27;;
22129;SDS011;11231;50.746;4.272;2023-05-10T03:01:56;28.10;;;14.63;;
22129;SDS011;11231;50.746;4.272;2023-05-10T03:04:21;25.63;;;14.40;;
22129;SDS011;11231;50.746;4.272;2023-05-10T03:06:47;28.43;;;14.43;;
22129;SDS011;11231;50.746;4.272;2023-05-10T03:09:13;27.17;;;15.77;;
22129;SDS011;11231;50.746;4.272;2023-05-10T03:17:47;28.40;;;14.70;;
22129;SDS011;11231;50.746;4.272;2023-05-10T03:20:18;30.00;;;15.87;;
22129;SDS011;11231;50.746;4.272;2023-05-10T03:23:28;29.87;;;15.93;;
22129;SDS011;11231;50.746;4.272;2023-05-10T03:26:00;31.83;;;16.50;;
22129;SDS011;11231;50.746;4.272;2023-05-10T03:28:26;31.60;;;16.67;;
22129;SDS011;11231;50.746;4.272;2023-05-10T03:30:55;30.30;;;16.60;;
22129;SDS011;11231;50.746;4.272;2023-05-10T03:33:21;28.13;;;15.40;;
22129;SDS011;11231;50.746;4.272;2023-05-10T03:35:48;29.90;;;15.87;;
22129;SDS011;11231;50.746;4.272;2023-05-10T03:38:14;25.63;;;15.10;;
22129;SDS011;11231;50.746;4.272;2023-05-10T03:40:40;31.80;;;15.97;;
22129;SDS011;11231;50.746;4.272;2023-05-10T03:43:07;29.60;;;15.47;;
22129;SDS011;11231;50.746;4.272;2023-05-10T03:45:33;30.10;;;15.97;;
22129;SDS011;11231;50.746;4.272;2023-05-10T03:47:58;34.87;;;16.80;;
22129;SDS011;11231;50.746;4.272;2023-05-10T03:50:24;34.60;;;15.80;;
22129;SDS011;11231;50.746;4.272;2023-05-10T03:52:51;32.60;;;15.97;;
22129;SDS011;11231;50.746;4.272;2023-05-10T03:55:20;33.73;;;16.60;;
22129;SDS011;11231;50.746;4.272;2023-05-10T03:57:48;30.67;;;16.47;;
22129;SDS011;11231;50.746;4.272;2023-05-10T04:00:15;32.63;;;16.63;;
22129;SDS011;11231;50.746;4.272;2023-05-10T04:02:41;36.03;;;17.80;;
22129;SDS011;11231;50.746;4.272;2023-05-10T04:05:11;32.50;;;17.53;;
22129;SDS011;11231;50.746;4.272;2023-05-10T04:07:37;31.27;;;16.33;;
22129;SDS011;11231;50.746;4.272;2023-05-10T04:10:03;29.67;;;16.20;;
22129;SDS011;11231;50.746;4.272;2023-05-10T04:12:29;30.77;;;15.23;;
22129;SDS011;11231;50.746;4.272;2023-05-10T04:14:55;26.47;;;14.17;;
22129;SDS011;11231;50.746;4.272;2023-05-10T04:17:20;27.17;;;12.97;;
22129;SDS011;11231;50.746;4.272;2023-05-10T04:19:46;27.67;;;12.27;;
22129;SDS011;11231;50.746;4.272;2023-05-10T04:22:12;28.80;;;11.80;;
22129;SDS011;11231;50.746;4.272;2023-05-10T04:24:38;26.43;;;10.47;;
22129;SDS011;11231;50.746;4.272;2023-05-10T04:27:04;26.63;;;10.47;;
22129;SDS011;11231;50.746;4.272;2023-05-10T04:29:29;22.43;;;9.37;;
22129;SDS011;11231;50.746;4.272;2023-05-10T04:31:56;22.10;;;10.30;;
22129;SDS011;11231;50.746;4.272;2023-05-10T04:34:21;21.10;;;9.13;;
22129;SDS011;11231;50.746;4.272;2023-05-10T04:36:47;24.10;;;9.53;;
22129;SDS011;11231;50.746;4.272;2023-05-10T04:39:13;21.20;;;8.93;;
22129;SDS011;11231;50.746;4.272;2023-05-10T04:41:38;22.13;;;9.53;;
22129;SDS011;11231;50.746;4.272;2023-05-10T04:44:05;24.87;;;9.23;;
22129;SDS011;11231;50.746;4.272;2023-05-10T04:46:31;23.60;;;9.37;;
22129;SDS011;11231;50.746;4.272;2023-05-10T04:48:57;26.80;;;10.00;;
22129;SDS011;11231;50.746;4.272;2023-05-10T04:51:22;24.03;;;10.07;;
22129;SDS011;11231;50.746;4.272;2023-05-10T04:53:48;24.87;;;9.13;;
22129;SDS011;11231;50.746;4.272;2023-05-10T04:56:14;28.97;;;9.63;;
22129;SDS011;11231;50.746;4.272;2023-05-10T04:58:41;25.07;;;10.20;;
22129;SDS011;11231;50.746;4.272;2023-05-10T05:01:07;25.80;;;10.87;;
22129;SDS011;11231;50.746;4.272;2023-05-10T05:03:33;27.47;;;10.03;;
22129;SDS011;11231;50.746;4.272;2023-05-10T05:05:59;25.73;;;10.47;;
22129;SDS011;11231;50.746;4.272;2023-05-10T05:08:25;28.30;;;10.10;;
22129;SDS011;11231;50.746;4.272;2023-05-10T05:10:51;26.17;;;9.80;;
22129;SDS011;11231;50.746;4.272;2023-05-10T05:13:17;26.27;;;9.80;;
22129;SDS011;11231;50.746;4.272;2023-05-10T05:15:42;25.53;;;9.53;;
22129;SDS011;11231;50.746;4.272;2023-05-10T05:18:08;24.00;;;9.57;;
22129;SDS011;11231;50.746;4.272;2023-05-10T05:20:34;24.93;;;9.47;;
22129;SDS011;11231;50.746;4.272;2023-05-10T05:23:00;23.10;;;9.40;;
22129;SDS011;11231;50.746;4.272;2023-05-10T05:25:26;22.77;;;8.83;;
22129;SDS011;11231;50.746;4.272;2023-05-10T05:27:52;23.80;;;8.43;;
22129;SDS011;11231;50.746;4.272;2023-05-10T05:30:17;19.17;;;8.03;;
22129;SDS011;11231;50.746;4.272;2023-05-10T05:32:43;16.83;;;7.73;;
22129;SDS011;11231;50.746;4.272;2023-05-10T05:35:09;23.50;;;7.97;;
22129;SDS011;11231;50.746;4.272;2023-05-10T05:37:36;20.03;;;7.47;;
22129;SDS011;11231;50.746;4.272;2023-05-10T05:40:02;16.93;;;6.97;;
22129;SDS011;11231;50.746;4.272;2023-05-10T05:42:28;19.60;;;7.80;;
22129;SDS011;11231;50.746;4.272;2023-05-10T05:44:55;15.30;;;7.07;;
22129;SDS011;11231;50.746;4.272;2023-05-10T05:47:21;17.43;;;7.77;;
22129;SDS011;11231;50.746;4.272;2023-05-10T05:49:47;19.07;;;8.47;;
22129;SDS011;11231;50.746;4.272;2023-05-10T05:52:13;18.27;;;8.17;;
22129;SDS011;11231;50.746;4.272;2023-05-10T05:54:38;18.17;;;8.07;;
22129;SDS011;11231;50.746;4.272;2023-05-10T05:57:04;16.37;;;8.00;;
22129;SDS011;11231;50.746;4.272;2023-05-10T05:59:30;16.17;;;7.80;;
22129;SDS011;11231;50.746;4.272;2023-05-10T06:01:56;15.53;;;7.93;;
22129;SDS011;11231;50.746;4.272;2023-05-10T06:04:22;13.03;;;6.57;;
22129;SDS011;11231;50.746;4.272;2023-05-10T06:06:48;13.10;;;6.63;;
22129;SDS011;11231;50.746;4.272;2023-05-10T06:09:13;10.17;;;5.50;;
22129;SDS011;11231;50.746;4.272;2023-05-10T06:11:39;9.90;;;5.23;;
22129;SDS011;11231;50.746;4.272;2023-05-10T06:14:05;11.00;;;5.07;;
22129;SDS011;11231;50.746;4.272;2023-05-10T06:16:33;10.23;;;4.87;;
22129;SDS011;11231;50.746;4.272;2023-05-10T06:18:59;10.47;;;5.17;;
22129;SDS011;11231;50.746;4.272;2023-05-10T06:21:25;8.50;;;4.60;;
22129;SDS011;11231;50.746;4.272;2023-05-10T06:23:51;13.77;;;4.97;;
22129;SDS011;11231;50.746;4.272;2023-05-10T06:26:16;9.80;;;4.77;;
22129;SDS011;11231;50.746;4.272;2023-05-10T06:28:42;10.13;;;4.93;;
22129;SDS011;11231;50.746;4.272;2023-05-10T06:31:08;12.10;;;4.70;;
22129;SDS011;11231;50.746;4.272;2023-05-10T06:33:35;12.37;;;4.83;;
22129;SDS011;11231;50.746;4.272;2023-05-10T06:36:00;12.13;;;4.53;;
22129;SDS011;11231;50.746;4.272;2023-05-10T06:38:27;8.87;;;4.00;;
22129;SDS011;11231;50.746;4.272;2023-05-10T06:40:52;9.40;;;4.07;;
22129;SDS011;11231;50.746;4.272;2023-05-10T06:43:18;9.67;;;4.30;;
22129;SDS011;11231;50.746;4.272;2023-05-10T06:45:44;8.23;;;3.87;;
22129;SDS011;11231;50.746;4.272;2023-05-10T06:48:09;10.43;;;4.60;;
22129;SDS011;11231;50.746;4.272;2023-05-10T06:50:35;7.97;;;4.17;;
22129;SDS011;11231;50.746;4.272;2023-05-10T06:53:01;9.90;;;4.07;;
22129;SDS011;11231;50.746;4.272;2023-05-10T06:55:27;9.43;;;4.40;;
22129;SDS011;11231;50.746;4.272;2023-05-10T06:57:54;9.77;;;4.10;;
22129;SDS011;11231;50.746;4.272;2023-05-10T07:00:20;8.67;;;4.20;;
22129;SDS011;11231;50.746;4.272;2023-05-10T07:02:46;10.17;;;4.90;;
22129;SDS011;11231;50.746;4.272;2023-05-10T07:05:12;9.03;;;4.53;;
22129;SDS011;11231;50.746;4.272;2023-05-10T07:07:39;8.43;;;4.20;;
22129;SDS011;11231;50.746;4.272;2023-05-10T07:10:05;9.43;;;4.10;;
22129;SDS011;11231;50.746;4.272;2023-05-10T07:12:32;6.73;;;3.80;;
22129;SDS011;11231;50.746;4.272;2023-05-10T07:14:58;8.13;;;4.03;;
22129;SDS011;11231;50.746;4.272;2023-05-10T07:17:23;7.13;;;3.40;;
22129;SDS011;11231;50.746;4.272;2023-05-10T07:19:49;8.23;;;3.67;;
22129;SDS011;11231;50.746;4.272;2023-05-10T07:22:15;7.10;;;3.30;;
22129;SDS011;11231;50.746;4.272;2023-05-10T07:24:44;7.90;;;3.30;;
22129;SDS011;11231;50.746;4.272;2023-05-10T07:27:10;6.77;;;2.90;;
22129;SDS011;11231;50.746;4.272;2023-05-10T07:29:36;7.17;;;3.30;;
22129;SDS011;11231;50.746;4.272;2023-05-10T07:32:02;8.60;;;3.30;;
22129;SDS011;11231;50.746;4.272;2023-05-10T07:34:28;7.07;;;3.20;;
22129;SDS011;11231;50.746;4.272;2023-05-10T07:36:55;7.37;;;2.97;;
22129;SDS011;11231;50.746;4.272;2023-05-10T07:39:22;7.00;;;3.00;;
22129;SDS011;11231;50.746;4.272;2023-05-10T07:41:48;7.63;;;2.93;;
22129;SDS011;11231;50.746;4.272;2023-05-10T07:44:14;7.93;;;2.73;;
22129;SDS011;11231;50.746;4.272;2023-05-10T07:46:40;4.97;;;2.40;;
22129;SDS011;11231;50.746;4.272;2023-05-10T07:49:05;4.87;;;2.00;;
22129;SDS011;11231;50.746;4.272;2023-05-10T07:51:31;4.90;;;2.07;;
22129;SDS011;11231;50.746;4.272;2023-05-10T07:53:57;5.90;;;2.03;;
22129;SDS011;11231;50.746;4.272;2023-05-10T07:56:26;4.47;;;2.27;;
22129;SDS011;11231;50.746;4.272;2023-05-10T07:58:57;5.07;;;2.10;;
22129;SDS011;11231;50.746;4.272;2023-05-10T08:01:29;4.47;;;1.97;;
22129;SDS011;11231;50.746;4.272;2023-05-10T08:03:57;4.43;;;1.93;;
22129;SDS011;11231;50.746;4.272;2023-05-10T08:06:23;5.63;;;2.20;;
22129;SDS011;11231;50.746;4.272;2023-05-10T08:08:49;4.47;;;2.20;;
22129;SDS011;11231;50.746;4.272;2023-05-10T08:11:16;3.60;;;1.70;;
22129;SDS011;11231;50.746;4.272;2023-05-10T08:13:42;4.37;;;1.60;;
22129;SDS011;11231;50.746;4.272;2023-05-10T08:16:09;2.87;;;1.80;;
22129;SDS011;11231;50.746;4.272;2023-05-10T08:18:34;3.67;;;1.70;;
22129;SDS011;11231;50.746;4.272;2023-05-10T08:21:00;5.93;;;2.10;;
22129;SDS011;11231;50.746;4.272;2023-05-10T08:23:26;3.30;;;1.90;;
22129;SDS011;11231;50.746;4.272;2023-05-10T08:25:52;4.77;;;2.00;;
22129;SDS011;11231;50.746;4.272;2023-05-10T08:28:18;4.07;;;1.93;;
22129;SDS011;11231;50.746;4.272;2023-05-10T08:30:43;3.63;;;2.10;;
22129;SDS011;11231;50.746;4.272;2023-05-10T08:33:09;5.50;;;2.30;;
22129;SDS011;11231;50.746;4.272;2023-05-10T08:35:35;4.00;;;2.10;;
22129;SDS011;11231;50.746;4.272;2023-05-10T08:38:01;5.90;;;2.53;;
22129;SDS011;11231;50.746;4.272;2023-05-10T08:40:26;4.90;;;2.70;;
22129;SDS011;11231;50.746;4.272;2023-05-10T08:43:01;6.30;;;2.60;;
22129;SDS011;11231;50.746;4.272;2023-05-10T08:45:36;6.83;;;2.67;;
22129;SDS011;11231;50.746;4.272;2023-05-10T08:48:05;3.90;;;2.67;;
22129;SDS011;11231;50.746;4.272;2023-05-10T08:50:41;8.73;;;4.53;;
22129;SDS011;11231;50.746;4.272;2023-05-10T08:53:11;5.73;;;2.70;;
22129;SDS011;11231;50.746;4.272;2023-05-10T08:55:38;4.63;;;2.80;;
22129;SDS011;11231;50.746;4.272;2023-05-10T08:58:05;5.53;;;2.90;;
22129;SDS011;11231;50.746;4.272;2023-05-10T09:00:32;4.83;;;2.60;;
22129;SDS011;11231;50.746;4.272;2023-05-10T09:02:58;6.47;;;3.10;;
22129;SDS011;11231;50.746;4.272;2023-05-10T09:05:25;6.23;;;3.23;;
22129;SDS011;11231;50.746;4.272;2023-05-10T09:07:51;5.83;;;3.40;;
22129;SDS011;11231;50.746;4.272;2023-05-10T09:10:18;6.53;;;3.30;;
22129;SDS011;11231;50.746;4.272;2023-05-10T09:12:44;5.20;;;3.40;;
22129;SDS011;11231;50.746;4.272;2023-05-10T09:15:11;5.77;;;3.30;;
22129;SDS011;11231;50.746;4.272;2023-05-10T09:17:39;7.30;;;3.63;;
22129;SDS011;11231;50.746;4.272;2023-05-10T09:20:06;4.90;;;3.20;;
22129;SDS011;11231;50.746;4.272;2023-05-10T09:22:32;5.40;;;3.10;;
22129;SDS011;11231;50.746;4.272;2023-05-10T09:25:05;5.87;;;3.63;;
22129;SDS011;11231;50.746;4.272;2023-05-10T09:27:32;5.83;;;3.43;;
22129;SDS011;11231;50.746;4.272;2023-05-10T09:29:58;6.60;;;3.37;;
22129;SDS011;11231;50.746;4.272;2023-05-10T09:32:35;8.00;;;3.57;;
22129;SDS011;11231;50.746;4.272;2023-05-10T09:37:33;5.77;;;3.00;;
22129;SDS011;11231;50.746;4.272;2023-05-10T09:39:59;4.37;;;2.87;;
22129;SDS011;11231;50.746;4.272;2023-05-10T09:42:25;6.73;;;3.20;;
22129;SDS011;11231;50.746;4.272;2023-05-10T09:44:50;5.33;;;3.00;;
22129;SDS011;11231;50.746;4.272;2023-05-10T09:47:17;4.13;;;2.43;;
22129;SDS011;11231;50.746;4.272;2023-05-10T09:49:44;5.30;;;2.93;;
22129;SDS011;11231;50.746;4.272;2023-05-10T09:52:14;5.47;;;2.70;;
22129;SDS011;11231;50.746;4.272;2023-05-10T09:54:42;4.50;;;2.37;;
22129;SDS011;11231;50.746;4.272;2023-05-10T09:57:20;5.33;;;2.47;;
22129;SDS011;11231;50.746;4.272;2023-05-10T09:59:47;5.97;;;2.30;;
22129;SDS011;11231;50.746;4.272;2023-05-10T10:02:14;4.87;;;2.53;;
22129;SDS011;11231;50.746;4.272;2023-05-10T10:04:40;5.90;;;2.50;;
22129;SDS011;11231;50.746;4.272;2023-05-10T10:07:06;4.97;;;2.40;;
22129;SDS011;11231;50.746;4.272;2023-05-10T10:09:33;4.73;;;2.13;;
22129;SDS011;11231;50.746;4.272;2023-05-10T10:12:00;4.03;;;2.50;;
22129;SDS011;11231;50.746;4.272;2023-05-10T10:14:27;5.70;;;2.60;;
22129;SDS011;11231;50.746;4.272;2023-05-10T10:16:57;4.30;;;2.50;;
22129;SDS011;11231;50.746;4.272;2023-05-10T10:19:25;4.83;;;2.30;;
22129;SDS011;11231;50.746;4.272;2023-05-10T10:21:51;4.83;;;2.50;;
22129;SDS011;11231;50.746;4.272;2023-05-10T10:24:17;5.07;;;2.27;;
22129;SDS011;11231;50.746;4.272;2023-05-10T10:26:43;4.90;;;2.60;;
22129;SDS011;11231;50.746;4.272;2023-05-10T10:29:34;4.33;;;2.70;;
22129;SDS011;11231;50.746;4.272;2023-05-10T10:34:42;5.43;;;3.00;;
22129;SDS011;11231;50.746;4.272;2023-05-10T10:37:08;5.83;;;3.00;;
22129;SDS011;11231;50.746;4.272;2023-05-10T10:39:34;5.97;;;2.97;;
22129;SDS011;11231;50.746;4.272;2023-05-10T10:42:02;7.30;;;3.10;;
22129;SDS011;11231;50.746;4.272;2023-05-10T10:50:05;6.37;;;3.00;;
22129;SDS011;11231;50.746;4.272;2023-05-10T10:52:36;5.47;;;2.87;;
22129;SDS011;11231;50.746;4.272;2023-05-10T10:55:10;6.03;;;3.23;;
22129;SDS011;11231;50.746;4.272;2023-05-10T11:00:22;6.67;;;3.03;;
22129;SDS011;11231;50.746;4.272;2023-05-10T11:02:49;4.93;;;2.90;;
22129;SDS011;11231;50.746;4.272;2023-05-10T11:05:44;5.40;;;2.90;;
22129;SDS011;11231;50.746;4.272;2023-05-10T11:13:27;6.87;;;3.27;;
22129;SDS011;11231;50.746;4.272;2023-05-10T11:15:54;6.73;;;3.30;;
22129;SDS011;11231;50.746;4.272;2023-05-10T11:18:28;5.27;;;3.20;;
22129;SDS011;11231;50.746;4.272;2023-05-10T11:20:59;5.60;;;2.97;;
22129;SDS011;11231;50.746;4.272;2023-05-10T11:23:32;6.10;;;3.00;;
22129;SDS011;11231;50.746;4.272;2023-05-10T11:26:12;5.37;;;3.00;;
22129;SDS011;11231;50.746;4.272;2023-05-10T11:28:41;5.83;;;2.80;;
22129;SDS011;11231;50.746;4.272;2023-05-10T11:31:18;5.07;;;2.80;;
22129;SDS011;11231;50.746;4.272;2023-05-10T11:33:45;6.17;;;3.30;;
22129;SDS011;11231;50.746;4.272;2023-05-10T11:36:13;6.00;;;3.33;;
22129;SDS011;11231;50.746;4.272;2023-05-10T11:38:40;6.23;;;3.60;;
22129;SDS011;11231;50.746;4.272;2023-05-10T11:41:08;6.27;;;3.80;;
22129;SDS011;11231;50.746;4.272;2023-05-10T11:43:35;6.57;;;3.90;;
22129;SDS011;11231;50.746;4.272;2023-05-10T11:46:04;4.60;;;3.03;;
22129;SDS011;11231;50.746;4.272;2023-05-10T11:48:31;5.67;;;3.40;;
22129;SDS011;11231;50.746;4.272;2023-05-10T11:50:57;5.50;;;3.30;;
22129;SDS011;11231;50.746;4.272;2023-05-10T11:53:23;6.57;;;3.43;;
22129;SDS011;11231;50.746;4.272;2023-05-10T11:55:51;5.40;;;2.90;;
22129;SDS011;11231;50.746;4.272;2023-05-10T11:58:17;5.10;;;3.40;;
22129;SDS011;11231;50.746;4.272;2023-05-10T12:00:44;5.47;;;3.20;;
22129;SDS011;11231;50.746;4.272;2023-05-10T12:03:10;3.17;;;2.00;;
22129;SDS011;11231;50.746;4.272;2023-05-10T12:05:36;5.37;;;2.20;;
22129;SDS011;11231;50.746;4.272;2023-05-10T12:08:15;3.37;;;2.40;;
22129;SDS011;11231;50.746;4.272;2023-05-10T12:10:45;4.30;;;2.40;;
22129;SDS011;11231;50.746;4.272;2023-05-10T12:13:11;3.83;;;2.40;;
22129;SDS011;11231;50.746;4.272;2023-05-10T12:15:39;4.23;;;2.17;;
22129;SDS011;11231;50.746;4.272;2023-05-10T12:18:05;4.43;;;2.67;;
22129;SDS011;11231;50.746;4.272;2023-05-10T12:20:31;7.23;;;3.13;;
22129;SDS011;11231;50.746;4.272;2023-05-10T12:22:58;6.17;;;3.50;;
22129;SDS011;11231;50.746;4.272;2023-05-10T12:25:32;7.10;;;4.47;;
22129;SDS011;11231;50.746;4.272;2023-05-10T12:28:00;9.03;;;4.43;;
22129;SDS011;11231;50.746;4.272;2023-05-10T12:30:29;7.80;;;4.47;;
22129;SDS011;11231;50.746;4.272;2023-05-10T12:32:59;8.87;;;5.20;;
22129;SDS011;11231;50.746;4.272;2023-05-10T12:35:46;9.40;;;5.10;;
22129;SDS011;11231;50.746;4.272;2023-05-10T12:40:55;9.77;;;5.00;;
22129;SDS011;11231;50.746;4.272;2023-05-10T12:43:21;7.90;;;4.90;;
22129;SDS011;11231;50.746;4.272;2023-05-10T12:45:48;10.73;;;4.37;;
22129;SDS011;11231;50.746;4.272;2023-05-10T12:48:20;8.50;;;4.43;;
22129;SDS011;11231;50.746;4.272;2023-05-10T12:50:46;7.13;;;3.80;;
22129;SDS011;11231;50.746;4.272;2023-05-10T12:53:13;6.87;;;3.73;;
22129;SDS011;11231;50.746;4.272;2023-05-10T12:55:43;8.00;;;3.73;;
22129;SDS011;11231;50.746;4.272;2023-05-10T12:58:09;9.63;;;3.63;;
22129;SDS011;11231;50.746;4.272;2023-05-10T13:00:35;7.07;;;3.97;;
22129;SDS011;11231;50.746;4.272;2023-05-10T13:03:03;7.37;;;3.63;;
22129;SDS011;11231;50.746;4.272;2023-05-10T13:05:33;8.03;;;3.87;;
22129;SDS011;11231;50.746;4.272;2023-05-10T13:07:59;7.93;;;4.30;;
22129;SDS011;11231;50.746;4.272;2023-05-10T13:10:25;6.93;;;4.30;;
22129;SDS011;11231;50.746;4.272;2023-05-10T13:12:51;9.53;;;4.90;;
22129;SDS011;11231;50.746;4.272;2023-05-10T13:15:20;9.63;;;4.43;;
22129;SDS011;11231;50.746;4.272;2023-05-10T13:17:46;9.67;;;4.40;;
22129;SDS011;11231;50.746;4.272;2023-05-10T13:20:12;9.93;;;5.10;;
22129;SDS011;11231;50.746;4.272;2023-05-10T13:22:38;7.97;;;4.90;;
22129;SDS011;11231;50.746;4.272;2023-05-10T13:25:04;8.87;;;5.30;;
22129;SDS011;11231;50.746;4.272;2023-05-10T13:27:30;10.27;;;5.47;;
22129;SDS011;11231;50.746;4.272;2023-05-10T13:29:56;9.43;;;5.03;;
22129;SDS011;11231;50.746;4.272;2023-05-10T13:32:22;9.43;;;4.60;;
22129;SDS011;11231;50.746;4.272;2023-05-10T13:34:47;9.27;;;4.80;;
22129;SDS011;11231;50.746;4.272;2023-05-10T13:37:13;7.73;;;4.87;;
22129;SDS011;11231;50.746;4.272;2023-05-10T13:39:39;8.87;;;5.07;;
22129;SDS011;11231;50.746;4.272;2023-05-10T13:42:05;11.10;;;5.80;;
22129;SDS011;11231;50.746;4.272;2023-05-10T13:44:31;9.17;;;5.47;;
22129;SDS011;11231;50.746;4.272;2023-05-10T13:46:58;8.67;;;5.30;;
22129;SDS011;11231;50.746;4.272;2023-05-10T13:49:24;7.77;;;4.93;;
22129;SDS011;11231;50.746;4.272;2023-05-10T13:51:53;8.97;;;5.23;;
22129;SDS011;11231;50.746;4.272;2023-05-10T13:54:19;9.90;;;5.50;;
22129;SDS011;11231;50.746;4.272;2023-05-10T13:56:45;9.90;;;5.43;;
22129;SDS011;11231;50.746;4.272;2023-05-10T13:59:12;9.73;;;5.10;;
22129;SDS011;11231;50.746;4.272;2023-05-10T14:01:39;10.63;;;5.60;;
22129;SDS011;11231;50.746;4.272;2023-05-10T14:04:06;14.57;;;6.67;;
22129;SDS011;11231;50.746;4.272;2023-05-10T14:06:36;13.20;;;6.67;;
22129;SDS011;11231;50.746;4.272;2023-05-10T14:09:02;12.57;;;6.90;;
22129;SDS011;11231;50.746;4.272;2023-05-10T14:11:28;11.80;;;7.07;;
22129;SDS011;11231;50.746;4.272;2023-05-10T14:13:54;14.00;;;7.07;;
22129;SDS011;11231;50.746;4.272;2023-05-10T14:16:20;10.03;;;6.13;;
22129;SDS011;11231;50.746;4.272;2023-05-10T14:18:46;12.90;;;6.53;;
22129;SDS011;11231;50.746;4.272;2023-05-10T14:21:12;11.40;;;7.03;;
22129;SDS011;11231;50.746;4.272;2023-05-10T14:23:38;11.93;;;7.50;;
22129;SDS011;11231;50.746;4.272;2023-05-10T14:26:04;13.03;;;7.70;;
22129;SDS011;11231;50.746;4.272;2023-05-10T14:28:31;12.37;;;7.70;;
22129;SDS011;11231;50.746;4.272;2023-05-10T14:30:57;12.67;;;7.43;;
22129;SDS011;11231;50.746;4.272;2023-05-10T14:33:24;16.17;;;9.17;;
22129;SDS011;11231;50.746;4.272;2023-05-10T14:35:50;14.00;;;8.57;;
22129;SDS011;11231;50.746;4.272;2023-05-10T14:38:16;15.00;;;8.80;;
22129;SDS011;11231;50.746;4.272;2023-05-10T14:40:42;15.77;;;9.60;;
22129;SDS011;11231;50.746;4.272;2023-05-10T14:43:08;18.10;;;10.10;;
22129;SDS011;11231;50.746;4.272;2023-05-10T14:45:34;16.40;;;9.33;;
22129;SDS011;11231;50.746;4.272;2023-05-10T14:48:00;14.47;;;8.80;;
22129;SDS011;11231;50.746;4.272;2023-05-10T14:50:29;18.87;;;10.63;;
22129;SDS011;11231;50.746;4.272;2023-05-10T14:52:56;17.73;;;11.13;;
22129;SDS011;11231;50.746;4.272;2023-05-10T14:55:23;20.70;;;11.20;;
22129;SDS011;11231;50.746;4.272;2023-05-10T14:57:49;16.20;;;10.40;;
22129;SDS011;11231;50.746;4.272;2023-05-10T15:00:15;17.03;;;9.87;;
22129;SDS011;11231;50.746;4.272;2023-05-10T15:02:44;21.47;;;11.17;;
22129;SDS011;11231;50.746;4.272;2023-05-10T15:05:09;13.97;;;7.47;;
22129;SDS011;11231;50.746;4.272;2023-05-10T15:07:35;14.57;;;8.00;;
22129;SDS011;11231;50.746;4.272;2023-05-10T15:10:01;13.40;;;7.20;;
22129;SDS011;11231;50.746;4.272;2023-05-10T15:12:28;14.70;;;7.37;;
22129;SDS011;11231;50.746;4.272;2023-05-10T15:14:53;14.23;;;8.20;;
22129;SDS011;11231;50.746;4.272;2023-05-10T15:17:19;16.00;;;7.50;;
22129;SDS011;11231;50.746;4.272;2023-05-10T15:19:45;15.20;;;7.70;;
22129;SDS011;11231;50.746;4.272;2023-05-10T15:22:11;13.43;;;7.57;;
22129;SDS011;11231;50.746;4.272;2023-05-10T15:24:37;16.83;;;7.33;;